Time;durP1;ratioP1;P1;durP2;ratioP2;P2;SDS_P1;SDS_P2;PMS_P1;PMS_P2;Temp;Humidity;BMP_temperature;BMP_pressure;BME280_temperature;BME280_humidity;BME280_pressure;Samples;Min_cycle;Max_cycle;Signal;HPM_P1;HPM_P2
2022/10/01 00:00:19;;;;;;;;;;;16.80;99.90;;;;;;5095675;28;20007;-76
2022/10/01 00:02:45;;;;;;;;;;;16.80;99.90;;;;;;5095721;28;19912;-76
2022/10/01 00:05:11;;;;;;;;;;;16.90;99.90;;;;;;5095615;28;19915;-75
2022/10/01 00:07:39;;;;;;;;;;;16.90;99.90;;;;;;5095497;28;19912;-76
2022/10/01 00:10:05;;;;;;;;;;;16.90;99.90;;;;;;5095723;28;19912;-76
2022/10/01 00:12:30;;;;;;;;;;;16.90;99.90;;;;;;5095436;28;19908;-76
2022/10/01 00:14:56;;;;;;;;;;;16.90;99.90;;;;;;5095425;28;19991;-78
2022/10/01 00:17:21;;;;;;;;;;;16.90;99.90;;;;;;5095362;28;19908;-77
2022/10/01 00:19:47;;;;;;;;;;;16.90;99.90;;;;;;5095674;28;20283;-76
2022/10/01 00:22:12;;;;;;;;;;;17.00;99.90;;;;;;5095371;28;19908;-77
2022/10/01 00:24:39;;;;;;;;;;;16.90;99.90;;;;;;5095306;28;19909;-80
2022/10/01 00:27:05;;;;;;;;;;;17.00;99.90;;;;;;5095187;28;19958;-77
2022/10/01 00:29:31;;;;;;;;;;;17.00;99.90;;;;;;5095367;28;19951;-78
2022/10/01 00:31:57;;;;;;;;;;;16.90;99.90;;;;;;5095420;28;20340;-75
2022/10/01 00:34:22;;;;;;;;;;;17.00;99.90;;;;;;5095082;28;19908;-77
2022/10/01 00:36:48;;;;;;;;;;;17.00;99.90;;;;;;5095052;28;19913;-76
2022/10/01 00:39:14;;;;;;;;;;;17.00;99.90;;;;;;5095435;28;19931;-75
2022/10/01 00:41:40;;;;;;;;;;;17.00;99.90;;;;;;5094928;28;19953;-76
2022/10/01 00:44:24;;;;;;;;;;;16.90;99.90;;;;;;5094768;28;19957;-76
2022/10/01 00:46:50;;;;;;;;;;;17.00;99.90;;;;;;5094623;28;19920;-78
2022/10/01 00:49:23;;;;;;;;;;;17.00;99.90;;;;;;5093870;28;19912;-76
2022/10/01 00:51:51;;;;;;;;;;;17.00;99.90;;;;;;5076507;28;19953;-77
2022/10/01 00:54:30;;;;;;;;;;;17.10;99.90;;;;;;5094657;28;19908;-77
2022/10/01 00:56:56;;;;;;;;;;;17.10;99.90;;;;;;5094785;28;20011;-76
2022/10/01 00:59:22;;;;;;;;;;;17.00;99.90;;;;;;5094587;28;19915;-76
2022/10/01 01:01:47;;;;;;;;;;;17.00;99.90;;;;;;5094751;28;20283;-75
2022/10/01 01:04:16;;;;;;;;;;;16.90;99.90;;;;;;5094486;28;20368;-78
2022/10/01 01:06:47;;;;;;;;;;;17.00;99.90;;;;;;5094441;28;19954;-77
2022/10/01 01:09:12;;;;;;;;;;;17.00;99.90;;;;;;5094283;28;20007;-79
2022/10/01 01:11:45;;;;;;;;;;;17.00;99.90;;;;;;5094668;28;20402;-78
2022/10/01 01:14:17;;;;;;;;;;;17.00;99.90;;;;;;5094421;28;19915;-77
2022/10/01 01:16:48;;;;;;;;;;;17.00;99.90;;;;;;5094381;28;19908;-78
2022/10/01 01:19:17;;;;;;;;;;;17.00;99.90;;;;;;5094254;28;19912;-79
2022/10/01 01:21:44;;;;;;;;;;;17.10;99.90;;;;;;5094421;28;20291;-77
2022/10/01 01:24:28;;;;;;;;;;;17.10;99.90;;;;;;5094155;28;20356;-79
2022/10/01 01:27:09;;;;;;;;;;;17.10;99.90;;;;;;5094156;28;19908;-78
2022/10/01 01:29:35;;;;;;;;;;;17.10;99.90;;;;;;5094128;28;19916;-75
2022/10/01 01:32:06;;;;;;;;;;;17.10;99.90;;;;;;5094094;28;20288;-78
2022/10/01 01:34:32;;;;;;;;;;;17.20;99.90;;;;;;5094211;28;19946;-76
2022/10/01 01:37:05;;;;;;;;;;;17.10;99.90;;;;;;5094191;28;19915;-76
2022/10/01 01:39:32;;;;;;;;;;;17.00;99.90;;;;;;5094596;28;19915;-76
2022/10/01 01:42:01;;;;;;;;;;;17.00;99.90;;;;;;5093882;28;19915;-78
2022/10/01 01:44:30;;;;;;;;;;;16.90;99.90;;;;;;5094017;28;19915;-78
2022/10/01 01:46:57;;;;;;;;;;;16.80;99.90;;;;;;5093688;28;19942;-75
2022/10/01 01:49:22;;;;;;;;;;;16.80;99.90;;;;;;5093892;28;19912;-78
2022/10/01 01:51:51;;;;;;;;;;;16.80;99.90;;;;;;5093933;28;20372;-78
2022/10/01 01:54:17;;;;;;;;;;;16.70;99.90;;;;;;5093784;28;19908;-76
2022/10/01 01:56:43;;;;;;;;;;;16.80;99.90;;;;;;5093786;28;19909;-77
2022/10/01 01:59:09;;;;;;;;;;;16.80;99.90;;;;;;5093528;28;19915;-79
2022/10/01 02:01:36;;;;;;;;;;;16.80;99.90;;;;;;5093803;28;20007;-76
2022/10/01 02:04:22;;;;;;;;;;;16.90;99.90;;;;;;5093693;28;19909;-77
2022/10/01 02:06:47;;;;;;;;;;;16.90;99.90;;;;;;5092940;28;20361;-78
2022/10/01 02:09:18;;;;;;;;;;;16.90;99.90;;;;;;5093649;28;19918;-76
2022/10/01 02:11:52;;;;;;;;;;;16.90;99.90;;;;;;5093625;28;20002;-76
2022/10/01 02:14:27;;;;;;;;;;;16.90;99.90;;;;;;5094173;28;19908;-77
2022/10/01 02:17:00;;;;;;;;;;;16.90;99.90;;;;;;5075440;28;19958;-77
2022/10/01 02:19:30;;;;;;;;;;;16.90;99.90;;;;;;5093593;28;20425;-79
2022/10/01 02:21:59;;;;;;;;;;;16.90;99.90;;;;;;5093637;28;19934;-79
2022/10/01 02:24:40;;;;;;;;;;;16.90;99.90;;;;;;5093463;28;20403;-76
2022/10/01 02:27:26;;;;;;;;;;;16.90;99.90;;;;;;5093392;28;19908;-79
2022/10/01 02:29:53;;;;;;;;;;;16.90;99.90;;;;;;5092935;28;19991;-78
2022/10/01 02:32:19;;;;;;;;;;;16.90;99.90;;;;;;5093439;28;19908;-80
2022/10/01 02:34:46;;;;;;;;;;;16.90;99.90;;;;;;5093585;28;19908;-78
2022/10/01 02:37:12;;;;;;;;;;;17.00;99.90;;;;;;5093381;28;19916;-77
2022/10/01 02:39:40;;;;;;;;;;;16.90;99.90;;;;;;5094065;28;19908;-79
2022/10/01 02:42:07;;;;;;;;;;;16.90;99.90;;;;;;5093366;28;19912;-76
2022/10/01 02:44:38;;;;;;;;;;;17.00;99.90;;;;;;5093264;28;19912;-77
2022/10/01 02:47:22;;;;;;;;;;;16.90;99.90;;;;;;5093340;28;19997;-79
2022/10/01 02:49:48;;;;;;;;;;;16.90;99.90;;;;;;5093267;28;19908;-79
2022/10/01 02:52:25;;;;;;;;;;;17.00;99.90;;;;;;5075095;28;20292;-79
2022/10/01 02:54:57;;;;;;;;;;;17.00;99.90;;;;;;5093473;28;19908;-77
2022/10/01 02:57:23;;;;;;;;;;;17.00;99.90;;;;;;5093188;28;19908;-77
2022/10/01 02:59:51;;;;;;;;;;;17.00;99.90;;;;;;5093192;28;19909;-77
2022/10/01 03:02:17;;;;;;;;;;;17.00;99.90;;;;;;5093217;28;19915;-79
2022/10/01 03:04:43;;;;;;;;;;;17.00;99.90;;;;;;5093135;28;20269;-76
2022/10/01 03:07:09;;;;;;;;;;;17.00;99.90;;;;;;5093045;28;19915;-78
2022/10/01 03:09:35;;;;;;;;;;;16.90;99.90;;;;;;5093286;28;20299;-78
2022/10/01 03:12:01;;;;;;;;;;;17.00;99.90;;;;;;5095211;28;19919;-76
2022/10/01 03:14:27;;;;;;;;;;;17.00;99.90;;;;;;5096673;28;19908;-77
2022/10/01 03:16:53;;;;;;;;;;;17.00;99.90;;;;;;5096640;28;19908;-76
2022/10/01 03:19:18;;;;;;;;;;;17.00;99.90;;;;;;5096575;28;20398;-79
2022/10/01 03:21:44;;;;;;;;;;;17.00;99.90;;;;;;5096826;28;19908;-79
2022/10/01 03:24:10;;;;;;;;;;;17.00;99.90;;;;;;5096526;28;19962;-79
2022/10/01 03:26:35;;;;;;;;;;;17.10;99.90;;;;;;5096418;28;19908;-79
2022/10/01 03:29:02;;;;;;;;;;;17.00;99.90;;;;;;5096622;28;19912;-77
2022/10/01 03:31:27;;;;;;;;;;;17.00;99.90;;;;;;5096304;28;20353;-78
2022/10/01 03:33:53;;;;;;;;;;;17.00;99.90;;;;;;5096245;28;19991;-79
2022/10/01 03:36:19;;;;;;;;;;;17.00;99.90;;;;;;5096227;28;19912;-79
2022/10/01 03:38:47;;;;;;;;;;;17.00;99.90;;;;;;5096533;28;19919;-78
2022/10/01 03:41:13;;;;;;;;;;;17.00;99.90;;;;;;5096115;28;19995;-76
2022/10/01 03:43:39;;;;;;;;;;;17.00;99.90;;;;;;5096207;28;19977;-78
2022/10/01 03:46:04;;;;;;;;;;;17.00;99.90;;;;;;5095793;28;19912;-78
2022/10/01 03:48:30;;;;;;;;;;;16.90;99.90;;;;;;5095933;28;19912;-78
2022/10/01 03:50:57;;;;;;;;;;;17.00;99.90;;;;;;5095938;28;20002;-77
2022/10/01 03:53:22;;;;;;;;;;;17.00;99.90;;;;;;5095867;28;19914;-76
2022/10/01 03:55:48;;;;;;;;;;;16.90;99.90;;;;;;5096096;28;20010;-76
2022/10/01 03:58:14;;;;;;;;;;;16.90;99.90;;;;;;5095811;28;19915;-77
2022/10/01 04:00:40;;;;;;;;;;;17.00;99.90;;;;;;5095730;28;19986;-77
2022/10/01 04:03:06;;;;;;;;;;;17.00;99.90;;;;;;5095716;28;19908;-77
2022/10/01 04:05:31;;;;;;;;;;;16.90;99.90;;;;;;5095610;28;19954;-80
2022/10/01 04:07:58;;;;;;;;;;;16.90;99.90;;;;;;5095709;28;20370;-77
2022/10/01 04:10:24;;;;;;;;;;;16.90;99.90;;;;;;5095437;28;19958;-79
2022/10/01 04:12:49;;;;;;;;;;;16.90;99.90;;;;;;5095540;28;20307;-76
2022/10/01 04:15:15;;;;;;;;;;;16.90;99.90;;;;;;5095371;28;19912;-79
2022/10/01 04:17:41;;;;;;;;;;;16.90;99.90;;;;;;5077151;28;19931;-78
2022/10/01 04:20:07;;;;;;;;;;;16.90;99.90;;;;;;5095416;28;19916;-79
2022/10/01 04:22:39;;;;;;;;;;;16.90;99.90;;;;;;5095236;28;19908;-77
2022/10/01 04:25:06;;;;;;;;;;;16.90;99.90;;;;;;5095279;28;19908;-78
2022/10/01 04:27:31;;;;;;;;;;;16.90;99.90;;;;;;5095088;28;19912;-76
2022/10/01 04:29:57;;;;;;;;;;;16.90;99.90;;;;;;5095210;28;20012;-77
2022/10/01 04:32:22;;;;;;;;;;;16.90;99.90;;;;;;5095256;28;19908;-78
2022/10/01 04:34:51;;;;;;;;;;;16.90;99.90;;;;;;5095065;28;19908;-77
2022/10/01 04:37:17;;;;;;;;;;;16.90;99.90;;;;;;5095021;28;20371;-77
2022/10/01 04:39:43;;;;;;;;;;;16.80;99.90;;;;;;5095537;28;19930;-78
2022/10/01 04:42:08;;;;;;;;;;;16.80;99.90;;;;;;5095251;28;20395;-78
2022/10/01 04:44:34;;;;;;;;;;;16.80;99.90;;;;;;5094816;28;19995;-77
2022/10/01 04:46:59;;;;;;;;;;;16.80;99.90;;;;;;5094648;28;19920;-76
2022/10/01 04:49:25;;;;;;;;;;;16.90;99.90;;;;;;5094715;28;19916;-79
2022/10/01 04:51:50;;;;;;;;;;;16.90;99.90;;;;;;5094801;28;19911;-79
2022/10/01 04:54:16;;;;;;;;;;;16.80;99.90;;;;;;5094880;28;20002;-80
2022/10/01 04:56:42;;;;;;;;;;;16.90;99.90;;;;;;5076519;28;19915;-77
2022/10/01 04:59:07;;;;;;;;;;;16.80;99.90;;;;;;5094645;28;20433;-79
2022/10/01 05:01:33;;;;;;;;;;;16.90;99.90;;;;;;5094609;28;19908;-77
2022/10/01 05:03:58;;;;;;;;;;;16.90;99.90;;;;;;5094688;28;19908;-78
2022/10/01 05:06:24;;;;;;;;;;;17.00;99.90;;;;;;5094494;28;19908;-77
2022/10/01 05:08:50;;;;;;;;;;;17.10;99.90;;;;;;5094364;28;19912;-77
2022/10/01 05:11:16;;;;;;;;;;;17.10;99.90;;;;;;5094567;28;20376;-78
2022/10/01 05:13:42;;;;;;;;;;;16.90;99.90;;;;;;5094418;28;19954;-78
2022/10/01 05:16:08;;;;;;;;;;;16.90;99.90;;;;;;5094407;28;20292;-77
2022/10/01 05:18:33;;;;;;;;;;;16.90;99.90;;;;;;5094312;28;19908;-79
2022/10/01 05:21:03;;;;;;;;;;;17.00;99.90;;;;;;5094450;28;19908;-78
2022/10/01 05:23:29;;;;;;;;;;;16.90;99.90;;;;;;5094513;28;19908;-78
2022/10/01 05:25:54;;;;;;;;;;;16.90;99.90;;;;;;5094272;28;20358;-79
2022/10/01 05:28:20;;;;;;;;;;;16.90;99.90;;;;;;5094104;28;19912;-80
2022/10/01 05:30:46;;;;;;;;;;;17.00;99.90;;;;;;5094347;28;19952;-79
2022/10/01 05:33:11;;;;;;;;;;;17.00;99.90;;;;;;5094396;28;20283;-78
2022/10/01 05:35:39;;;;;;;;;;;17.00;99.90;;;;;;5093649;28;19956;-78
2022/10/01 05:38:04;;;;;;;;;;;17.10;99.90;;;;;;5093969;28;19916;-77
2022/10/01 05:40:30;;;;;;;;;;;17.10;99.90;;;;;;5094416;28;19908;-77
2022/10/01 05:42:57;;;;;;;;;;;17.00;99.90;;;;;;5094292;28;19914;-78
2022/10/01 05:45:23;;;;;;;;;;;17.10;99.90;;;;;;5093924;28;19912;-78
2022/10/01 05:48:15;;;;;;;;;;;17.00;99.90;;;;;;5093600;28;19926;-77
2022/10/01 05:50:41;;;;;;;;;;;17.00;99.90;;;;;;5089813;28;19912;-80
2022/10/01 05:53:07;;;;;;;;;;;17.00;99.90;;;;;;5093768;28;19908;-78
2022/10/01 05:55:33;;;;;;;;;;;17.00;99.90;;;;;;5075683;28;20351;-79
2022/10/01 05:58:00;;;;;;;;;;;17.00;99.90;;;;;;5093746;28;19908;-79
2022/10/01 06:00:27;;;;;;;;;;;17.00;99.90;;;;;;5093716;28;19909;-77
2022/10/01 06:02:54;;;;;;;;;;;17.00;99.90;;;;;;5075598;28;20011;-80
2022/10/01 06:05:20;;;;;;;;;;;17.10;99.90;;;;;;5093708;28;20317;-80
2022/10/01 06:07:46;;;;;;;;;;;17.10;99.90;;;;;;5093563;28;20007;-79
2022/10/01 06:10:12;;;;;;;;;;;17.00;99.90;;;;;;5093670;28;20296;-78
2022/10/01 06:12:37;;;;;;;;;;;17.10;99.90;;;;;;5093701;28;19908;-77
2022/10/01 06:15:03;;;;;;;;;;;17.00;99.90;;;;;;5093780;28;19908;-80
2022/10/01 06:17:28;;;;;;;;;;;17.10;99.90;;;;;;5093154;28;19908;-80
2022/10/01 06:19:54;;;;;;;;;;;17.10;99.90;;;;;;5093703;28;20288;-79
2022/10/01 06:22:20;;;;;;;;;;;17.10;99.90;;;;;;5093563;28;19908;-79
2022/10/01 06:24:45;;;;;;;;;;;17.10;99.90;;;;;;5093703;28;19912;-76
2022/10/01 06:27:11;;;;;;;;;;;17.20;99.90;;;;;;5093434;28;19915;-78
2022/10/01 06:29:36;;;;;;;;;;;17.10;99.90;;;;;;5093485;28;19908;-79
2022/10/01 06:32:02;;;;;;;;;;;17.10;99.90;;;;;;5093607;28;20441;-79
2022/10/01 06:34:28;;;;;;;;;;;17.20;99.90;;;;;;5093426;28;19999;-80
2022/10/01 06:36:53;;;;;;;;;;;17.20;99.90;;;;;;5093402;28;19938;-79
2022/10/01 06:39:19;;;;;;;;;;;17.20;99.90;;;;;;5094299;28;19915;-77
2022/10/01 06:41:46;;;;;;;;;;;17.10;99.90;;;;;;5093366;28;20070;-80
2022/10/01 06:44:11;;;;;;;;;;;17.10;99.90;;;;;;5075350;28;19975;-79
2022/10/01 06:46:37;;;;;;;;;;;17.20;99.90;;;;;;5094659;28;20376;-78
2022/10/01 06:49:02;;;;;;;;;;;17.20;99.90;;;;;;5097182;28;19912;-80
2022/10/01 06:54:13;;;;;;;;;;;17.30;99.90;;;;;;5096916;28;19915;-78
2022/10/01 06:56:39;;;;;;;;;;;17.30;99.90;;;;;;5097016;28;19908;-78
2022/10/01 06:59:04;;;;;;;;;;;17.30;99.90;;;;;;5097322;28;19996;-79
2022/10/01 07:01:31;;;;;;;;;;;17.30;99.90;;;;;;5096912;28;20280;-80
2022/10/01 07:03:57;;;;;;;;;;;17.30;99.90;;;;;;5096858;28;19948;-78
2022/10/01 07:06:24;;;;;;;;;;;17.30;99.90;;;;;;5096874;28;19912;-78
2022/10/01 07:08:50;;;;;;;;;;;17.50;99.90;;;;;;5096683;28;19912;-80
2022/10/01 07:11:16;;;;;;;;;;;17.60;99.90;;;;;;5096797;28;19915;-80
2022/10/01 07:13:41;;;;;;;;;;;18.00;99.90;;;;;;5096742;28;19912;-77
2022/10/01 07:16:07;;;;;;;;;;;18.10;99.90;;;;;;5096629;28;19934;-80
2022/10/01 07:18:32;;;;;;;;;;;17.90;99.90;;;;;;5078367;28;19915;-80
2022/10/01 07:20:58;;;;;;;;;;;17.80;99.90;;;;;;5096455;28;19908;-80
2022/10/01 07:23:23;;;;;;;;;;;17.60;99.90;;;;;;5096606;28;19909;-78
2022/10/01 07:25:49;;;;;;;;;;;17.70;99.90;;;;;;5078271;28;19994;-79
2022/10/01 07:28:18;;;;;;;;;;;17.60;99.90;;;;;;5096456;28;19924;-79
2022/10/01 07:30:46;;;;;;;;;;;17.70;99.90;;;;;;5096115;28;19908;-80
2022/10/01 07:33:12;;;;;;;;;;;17.80;99.90;;;;;;5096151;28;19973;-79
2022/10/01 07:35:38;;;;;;;;;;;17.80;99.90;;;;;;5096124;28;19908;-81
2022/10/01 07:38:06;;;;;;;;;;;18.90;99.90;;;;;;5096251;28;19942;-77
2022/10/01 07:40:32;;;;;;;;;;;19.40;99.90;;;;;;5096668;28;19908;-78
2022/10/01 07:42:58;;;;;;;;;;;19.90;99.90;;;;;;5077841;28;19958;-77
2022/10/01 07:45:24;;;;;;;;;;;20.40;99.90;;;;;;5096020;28;19908;-77
2022/10/01 07:47:53;;;;;;;;;;;20.10;99.90;;;;;;5095731;28;20292;-78
2022/10/01 07:50:19;;;;;;;;;;;19.50;99.90;;;;;;5096112;28;19954;-79
2022/10/01 07:52:49;;;;;;;;;;;19.50;99.90;;;;;;5096233;28;19913;-80
2022/10/01 07:55:14;;;;;;;;;;;20.90;99.90;;;;;;5095859;28;19908;-78
2022/10/01 07:57:40;;;;;;;;;;;21.10;99.90;;;;;;5077168;28;19915;-78
2022/10/01 08:00:06;;;;;;;;;;;20.70;99.90;;;;;;5095747;28;19912;-78
2022/10/01 08:02:31;;;;;;;;;;;20.70;99.90;;;;;;5095826;28;20001;-79
2022/10/01 08:05:19;;;;;;;;;;;21.20;99.90;;;;;;5095551;28;19958;-76
2022/10/01 08:07:46;;;;;;;;;;;21.60;99.90;;;;;;5094661;28;19966;-76
2022/10/01 08:10:12;;;;;;;;;;;21.50;99.90;;;;;;5095727;28;19908;-79
2022/10/01 08:12:38;;;;;;;;;;;22.00;99.90;;;;;;5095791;28;20395;-76
2022/10/01 08:15:09;;;;;;;;;;;21.80;99.90;;;;;;5095785;28;19939;-78
2022/10/01 08:17:34;;;;;;;;;;;21.70;99.90;;;;;;5095605;28;19915;-77
2022/10/01 08:20:00;;;;;;;;;;;20.70;99.90;;;;;;5095504;28;20257;-77
2022/10/01 08:22:26;;;;;;;;;;;20.90;99.90;;;;;;5095363;28;20284;-78
2022/10/01 08:24:52;;;;;;;;;;;21.60;99.90;;;;;;5095493;28;20003;-76
2022/10/01 08:27:17;;;;;;;;;;;22.10;99.90;;;;;;5066211;28;20266;-78
2022/10/01 08:29:43;;;;;;;;;;;22.00;99.90;;;;;;5074657;28;20314;-78
2022/10/01 08:32:09;;;;;;;;;;;22.80;99.90;;;;;;5075063;28;19951;-82
2022/10/01 08:34:35;;;;;;;;;;;23.10;99.90;;;;;;5075191;28;20237;-79
2022/10/01 08:37:00;;;;;;;;;;;24.00;99.90;;;;;;5073954;28;19918;-81
2022/10/01 08:39:26;;;;;;;;;;;25.10;99.90;;;;;;5074742;28;19908;-79
2022/10/01 08:41:56;;;;;;;;;;;25.40;99.90;;;;;;5074281;28;19908;-80
2022/10/01 08:44:26;;;;;;;;;;;25.40;99.90;;;;;;5074995;28;19992;-79
2022/10/01 08:46:54;;;;;;;;;;;23.60;99.90;;;;;;5074409;28;19928;-75
2022/10/01 08:49:26;;;;;;;;;;;22.50;99.90;;;;;;5074484;28;19913;-78
2022/10/01 08:51:55;;;;;;;;;;;21.80;99.90;;;;;;5074732;28;19958;-76
2022/10/01 08:54:36;;;;;;;;;;;21.30;99.90;;;;;;5074963;28;19915;-76
2022/10/01 08:57:03;;;;;;;;;;;21.30;99.90;;;;;;5074725;28;19916;-75
2022/10/01 08:59:46;;;;;;;;;;;21.50;99.90;;;;;;5074315;28;20278;-77
2022/10/01 09:02:17;;;;;;;;;;;21.20;99.90;;;;;;5074749;28;19908;-80
2022/10/01 09:04:43;;;;;;;;;;;22.00;99.90;;;;;;5074193;28;19908;-80
2022/10/01 09:07:20;;;;;;;;;;;22.50;99.90;;;;;;5074048;28;19915;-78
2022/10/01 09:09:58;;;;;;;;;;;22.10;99.90;;;;;;5073769;28;19923;-80
2022/10/01 09:12:36;;;;;;;;;;;21.70;99.90;;;;;;5074371;28;19931;-76
2022/10/01 09:15:16;;;;;;;;;;;21.20;99.90;;;;;;5075405;28;19916;-76
2022/10/01 09:17:54;;;;;;;;;;;21.50;99.90;;;;;;5082740;28;20299;-78
2022/10/01 09:20:24;;;;;;;;;;;22.10;99.90;;;;;;5094701;28;19954;-76
2022/10/01 09:22:52;;;;;;;;;;;24.00;99.90;;;;;;5094565;28;19908;-77
2022/10/01 09:25:17;;;;;;;;;;;25.90;99.90;;;;;;5094373;28;20353;-78
2022/10/01 09:27:43;;;;;;;;;;;28.80;99.90;;;;;;5069136;28;19923;-79
2022/10/01 09:30:11;;;;;;;;;;;27.90;99.90;;;;;;5073800;28;19916;-78
2022/10/01 09:32:40;;;;;;;;;;;27.60;99.90;;;;;;5074092;28;19909;-75
2022/10/01 09:35:19;;;;;;;;;;;27.50;99.90;;;;;;5073834;28;19934;-78
2022/10/01 09:37:52;;;;;;;;;;;27.60;99.20;;;;;;5073880;28;19932;-79
2022/10/01 09:40:18;;;;;;;;;;;26.10;99.90;;;;;;5074761;28;20308;-79
2022/10/01 09:42:44;;;;;;;;;;;24.90;99.90;;;;;;5073607;28;19915;-78
2022/10/01 09:45:17;;;;;;;;;;;24.60;99.90;;;;;;5073569;28;19958;-79
2022/10/01 09:47:45;;;;;;;;;;;25.10;99.90;;;;;;5073242;28;19970;-80
2022/10/01 09:50:15;;;;;;;;;;;25.80;99.90;;;;;;5074166;28;19909;-80
2022/10/01 09:52:43;;;;;;;;;;;26.50;97.00;;;;;;5073920;28;20361;-79
2022/10/01 09:55:29;;;;;;;;;;;24.40;98.50;;;;;;5073492;28;19991;-76
2022/10/01 09:58:00;;;;;;;;;;;27.30;98.20;;;;;;5082680;28;20001;-78
2022/10/01 10:00:26;;;;;;;;;;;27.90;91.50;;;;;;5094074;28;19916;-80
2022/10/01 10:02:52;;;;;;;;;;;25.60;94.90;;;;;;5093996;28;19916;-76
2022/10/01 10:05:20;;;;;;;;;;;24.90;99.40;;;;;;5092467;28;20268;-77
2022/10/01 10:07:45;;;;;;;;;;;25.00;99.90;;;;;;5075456;28;20283;-76
2022/10/01 10:10:23;;;;;;;;;;;24.90;99.60;;;;;;5073677;28;19909;-77
2022/10/01 10:12:53;;;;;;;;;;;24.60;99.10;;;;;;5073066;28;19908;-75
2022/10/01 10:15:21;;;;;;;;;;;24.10;99.40;;;;;;5073915;28;19974;-78
2022/10/01 10:17:48;;;;;;;;;;;23.40;99.90;;;;;;5073514;28;20348;-79
2022/10/01 10:20:38;;;;;;;;;;;23.50;99.90;;;;;;5074154;28;19909;-77
2022/10/01 10:23:11;;;;;;;;;;;23.10;99.90;;;;;;5081871;28;20237;-78
2022/10/01 10:25:37;;;;;;;;;;;23.00;99.90;;;;;;5077504;28;19909;-78
2022/10/01 10:28:03;;;;;;;;;;;22.80;99.90;;;;;;5077257;28;20004;-80
2022/10/01 10:30:29;;;;;;;;;;;22.80;99.90;;;;;;5076186;28;19909;-76
2022/10/01 10:33:01;;;;;;;;;;;22.90;99.90;;;;;;5077065;28;20432;-80
2022/10/01 10:35:27;;;;;;;;;;;23.30;99.90;;;;;;5077611;28;19908;-79
2022/10/01 10:37:54;;;;;;;;;;;23.60;99.90;;;;;;5077372;28;20325;-76
2022/10/01 10:40:22;;;;;;;;;;;24.40;99.90;;;;;;5077482;28;19932;-80
2022/10/01 10:42:55;;;;;;;;;;;24.80;99.90;;;;;;5076632;28;19908;-79
2022/10/01 10:45:28;;;;;;;;;;;24.30;99.40;;;;;;5076386;28;19954;-77
2022/10/01 10:47:54;;;;;;;;;;;23.50;98.70;;;;;;5075921;28;19928;-77
2022/10/01 10:50:40;;;;;;;;;;;23.00;99.90;;;;;;5076064;28;19908;-77
2022/10/01 10:53:23;;;;;;;;;;;23.00;99.80;;;;;;5075483;28;19920;-78
2022/10/01 10:55:52;;;;;;;;;;;23.60;99.30;;;;;;5076461;28;19915;-76
2022/10/01 10:58:18;;;;;;;;;;;24.70;97.00;;;;;;5076494;28;20038;-78
2022/10/01 11:00:44;;;;;;;;;;;24.90;95.10;;;;;;5074958;28;19958;-77
2022/10/01 11:03:12;;;;;;;;;;;24.60;95.50;;;;;;5076094;28;19909;-79
2022/10/01 11:05:40;;;;;;;;;;;25.10;95.40;;;;;;5076275;28;19908;-77
2022/10/01 11:08:07;;;;;;;;;;;24.90;93.60;;;;;;5076149;28;20007;-78
2022/10/01 11:10:46;;;;;;;;;;;25.40;93.80;;;;;;5076134;28;20046;-77
2022/10/01 11:13:31;;;;;;;;;;;26.70;92.40;;;;;;5075837;28;20372;-79
2022/10/01 11:16:23;;;;;;;;;;;30.30;85.00;;;;;;5074506;28;19909;-80
2022/10/01 11:19:09;;;;;;;;;;;34.00;71.80;;;;;;5076369;28;19908;-80
2022/10/01 11:21:35;;;;;;;;;;;35.20;62.90;;;;;;5075792;28;19909;-80
2022/10/01 11:24:16;;;;;;;;;;;30.70;65.20;;;;;;5075871;28;19921;-78
2022/10/01 11:26:44;;;;;;;;;;;29.30;69.80;;;;;;5075721;28;20289;-79
2022/10/01 11:29:13;;;;;;;;;;;28.60;72.20;;;;;;5075800;28;19912;-76
2022/10/01 11:31:41;;;;;;;;;;;28.20;75.50;;;;;;5074671;28;19931;-78
2022/10/01 11:34:19;;;;;;;;;;;29.40;76.60;;;;;;5075750;28;19908;-79
2022/10/01 11:37:09;;;;;;;;;;;31.90;73.20;;;;;;5075749;28;19908;-80
2022/10/01 11:39:37;;;;;;;;;;;36.20;64.70;;;;;;5054463;28;20313;-83
2022/10/01 11:42:11;;;;;;;;;;;39.30;56.30;;;;;;5075973;28;19955;-80
2022/10/01 11:44:36;;;;;;;;;;;38.30;54.60;;;;;;5075621;28;19958;-81
2022/10/01 11:47:23;;;;;;;;;;;39.30;54.00;;;;;;5075325;28;19925;-80
2022/10/01 11:49:58;;;;;;;;;;;35.80;52.40;;;;;;5075152;28;19919;-81
2022/10/01 11:52:31;;;;;;;;;;;32.00;57.60;;;;;;5073847;28;19909;-79
2022/10/01 12:00:55;;;;;;;;;;;34.40;60.10;;;;;;5075382;28;20343;-79
2022/10/01 12:03:22;;;;;;;;;;;35.90;54.50;;;;;;5075156;28;19916;-82
2022/10/01 12:05:48;;;;;;;;;;;37.60;54.80;;;;;;5075274;28;19953;-81
2022/10/01 12:08:18;;;;;;;;;;;40.50;50.10;;;;;;5075128;28;19916;-79
2022/10/01 12:10:46;;;;;;;;;;;42.10;47.70;;;;;;5075149;28;19916;-80
2022/10/01 12:13:12;;;;;;;;;;;41.00;48.80;;;;;;5074424;28;20384;-82
2022/10/01 12:15:37;;;;;;;;;;;41.00;48.10;;;;;;5074915;28;19916;-83
2022/10/01 12:18:11;;;;;;;;;;;41.50;47.50;;;;;;5074821;28;19913;-78
2022/10/01 12:20:43;;;;;;;;;;;37.70;46.40;;;;;;5075005;28;19909;-78
2022/10/01 12:23:12;;;;;;;;;;;33.70;52.00;;;;;;5074269;28;19934;-79
2022/10/01 12:25:56;;;;;;;;;;;34.00;52.30;;;;;;5074836;28;19955;-80
2022/10/01 12:28:29;;;;;;;;;;;35.60;53.70;;;;;;5074708;28;19908;-78
2022/10/01 12:31:12;;;;;;;;;;;32.70;53.70;;;;;;5074726;28;19908;-80
2022/10/01 12:33:40;;;;;;;;;;;29.80;57.50;;;;;;5074256;28;20007;-80
2022/10/01 12:36:25;;;;;;;;;;;34.20;55.80;;;;;;5074580;28;20038;-80
2022/10/01 12:38:59;;;;;;;;;;;38.20;51.60;;;;;;5074235;28;20062;-82
2022/10/01 12:41:43;;;;;;;;;;;41.20;48.10;;;;;;5075010;28;19912;-79
2022/10/01 12:44:14;;;;;;;;;;;42.10;44.00;;;;;;5074200;28;19966;-78
2022/10/01 12:46:51;;;;;;;;;;;42.00;44.30;;;;;;5074226;28;20365;-78
2022/10/01 12:49:21;;;;;;;;;;;42.20;42.30;;;;;;5074288;28;19916;-77
2022/10/01 12:51:51;;;;;;;;;;;41.50;43.00;;;;;;5073752;28;19913;-75
2022/10/01 12:54:35;;;;;;;;;;;36.00;47.80;;;;;;5072593;28;19958;-78
2022/10/01 12:57:07;;;;;;;;;;;36.70;45.70;;;;;;5074092;28;20253;-78
2022/10/01 12:59:42;;;;;;;;;;;37.70;46.30;;;;;;5073977;28;20466;-81
2022/10/01 13:02:16;;;;;;;;;;;40.50;45.00;;;;;;5073763;28;20062;-78
2022/10/01 13:04:57;;;;;;;;;;;41.00;43.30;;;;;;5073986;28;20361;-79
2022/10/01 13:07:25;;;;;;;;;;;40.00;42.20;;;;;;5073899;28;19908;-77
2022/10/01 13:10:10;;;;;;;;;;;39.00;44.00;;;;;;5072658;28;19909;-77
2022/10/01 13:12:38;;;;;;;;;;;40.80;44.30;;;;;;5073492;28;20369;-77
2022/10/01 13:15:05;;;;;;;;;;;40.80;43.10;;;;;;5073611;28;20007;-78
2022/10/01 13:17:35;;;;;;;;;;;42.30;44.20;;;;;;5073760;28;20284;-80
2022/10/01 13:20:20;;;;;;;;;;;44.10;42.80;;;;;;5073732;28;19913;-74
2022/10/01 13:22:50;;;;;;;;;;;40.60;42.20;;;;;;5073548;28;19916;-79
2022/10/01 13:25:38;;;;;;;;;;;37.60;42.80;;;;;;5073623;28;19916;-76
2022/10/01 13:28:06;;;;;;;;;;;38.80;44.50;;;;;;5073322;28;20012;-79
2022/10/01 13:30:40;;;;;;;;;;;39.00;43.80;;;;;;5073516;28;19908;-77
2022/10/01 13:33:20;;;;;;;;;;;37.90;42.60;;;;;;5073166;28;19955;-76
2022/10/01 13:35:52;;;;;;;;;;;35.70;45.40;;;;;;5073739;28;19912;-79
2022/10/01 13:38:36;;;;;;;;;;;36.60;45.80;;;;;;5073382;28;20011;-80
2022/10/01 13:41:03;;;;;;;;;;;34.70;47.90;;;;;;5074035;28;19908;-79
2022/10/01 13:43:30;;;;;;;;;;;37.60;46.20;;;;;;5073089;28;19908;-78
2022/10/01 13:46:03;;;;;;;;;;;39.00;44.10;;;;;;5073459;28;19913;-81
2022/10/01 13:48:33;;;;;;;;;;;40.60;43.50;;;;;;5072999;28;19970;-80
2022/10/01 13:51:01;;;;;;;;;;;41.30;42.40;;;;;;5073422;28;19920;-81
2022/10/01 13:53:28;;;;;;;;;;;42.20;42.00;;;;;;5071587;28;19954;-82
2022/10/01 13:55:55;;;;;;;;;;;41.40;41.70;;;;;;5072979;28;19916;-81
2022/10/01 13:58:23;;;;;;;;;;;40.60;42.50;;;;;;5073286;28;19955;-82
2022/10/01 14:00:49;;;;;;;;;;;39.90;41.70;;;;;;5073345;28;19915;-80
2022/10/01 14:03:22;;;;;;;;;;;40.30;42.30;;;;;;5072867;28;19953;-79
2022/10/01 14:05:52;;;;;;;;;;;39.80;42.10;;;;;;5073231;28;19908;-78
2022/10/01 14:08:24;;;;;;;;;;;39.50;43.50;;;;;;5073244;28;19908;-82
2022/10/01 14:16:35;;;;;;;;;;;39.40;42.90;;;;;;5073120;28;19915;-79
2022/10/01 14:19:01;;;;;;;;;;;39.20;42.70;;;;;;5073077;28;19917;-82
2022/10/01 14:21:45;;;;;;;;;;;39.80;43.10;;;;;;5073053;28;19916;-77
2022/10/01 14:24:13;;;;;;;;;;;37.00;43.00;;;;;;5072532;28;19908;-81
2022/10/01 14:26:51;;;;;;;;;;;34.20;45.50;;;;;;5072856;28;19916;-81
2022/10/01 14:29:52;;;;;;;;;;;34.50;46.50;;;;;;5072959;28;19912;-81
2022/10/01 14:32:20;;;;;;;;;;;36.80;46.00;;;;;;5010636;28;19915;-78
2022/10/01 14:35:01;;;;;;;;;;;38.80;44.30;;;;;;5060814;28;19912;-81
2022/10/01 14:37:27;;;;;;;;;;;39.00;43.70;;;;;;5072883;28;19960;-80
2022/10/01 14:40:22;;;;;;;;;;;39.60;43.60;;;;;;5072642;28;19912;-79
2022/10/01 14:42:56;;;;;;;;;;;38.50;43.20;;;;;;5059912;28;19913;-78